Time;durP1;ratioP1;P1;durP2;ratioP2;P2;SDS_P1;SDS_P2;PMS_P1;PMS_P2;Temp;Humidity;BMP_temperature;BMP_pressure;BME280_temperature;BME280_humidity;BME280_pressure;Samples;Min_cycle;Max_cycle;Signal;HPM_P1;HPM_P2
2022/03/21 00:02:03;;;;;;;15.18;8.63;;;;;;;;;;5031227;28;20393;-74
2022/03/21 00:04:29;;;;;;;16.48;8.82;;;;;;;;;;5029799;28;20040;-77
2022/03/21 00:06:54;;;;;;;14.80;9.00;;;;;;;;;;5030927;28;20032;-77
2022/03/21 00:09:19;;;;;;;16.73;8.60;;;;;;;;;;5031273;28;20022;-75
2022/03/21 00:11:44;;;;;;;21.40;8.82;;;;;;;;;;5030957;28;20466;-74
2022/03/21 00:14:11;;;;;;;17.75;8.80;;;;;;;;;;5030811;28;20056;-75
2022/03/21 00:16:37;;;;;;;19.50;9.25;;;;;;;;;;5031210;28;20049;-75
2022/03/21 00:19:03;;;;;;;20.20;9.23;;;;;;;;;;5031050;28;20060;-76
2022/03/21 00:21:28;;;;;;;16.77;8.82;;;;;;;;;;5030968;28;20459;-75
2022/03/21 00:23:53;;;;;;;23.00;9.60;;;;;;;;;;5030085;28;20116;-77
2022/03/21 00:26:18;;;;;;;16.83;8.70;;;;;;;;;;5031177;28;20032;-75
2022/03/21 00:28:44;;;;;;;16.25;8.18;;;;;;;;;;5035798;28;20136;-77
2022/03/21 00:31:09;;;;;;;19.50;8.60;;;;;;;;;;5033977;28;20461;-75
2022/03/21 00:33:34;;;;;;;16.80;7.68;;;;;;;;;;5030427;28;20501;-74
2022/03/21 00:36:00;;;;;;;15.20;8.48;;;;;;;;;;5031380;28;20017;-74
2022/03/21 00:38:26;;;;;;;21.42;8.15;;;;;;;;;;5034959;28;20351;-75
2022/03/21 00:40:52;;;;;;;15.50;7.80;;;;;;;;;;5029660;28;20105;-76
2022/03/21 00:43:21;;;;;;;15.57;9.20;;;;;;;;;;5030420;28;20387;-75
2022/03/21 00:45:46;;;;;;;18.15;8.30;;;;;;;;;;5030962;28;20033;-75
2022/03/21 00:48:12;;;;;;;15.77;7.80;;;;;;;;;;5030739;28;20034;-76
2022/03/21 00:50:37;;;;;;;15.85;7.63;;;;;;;;;;5029259;28;20026;-77
2022/03/21 00:53:02;;;;;;;15.02;7.82;;;;;;;;;;5030645;28;20474;-79
2022/03/21 00:55:31;;;;;;;18.65;9.43;;;;;;;;;;5029395;28;20022;-75
2022/03/21 00:57:57;;;;;;;18.70;8.13;;;;;;;;;;5030853;28;20022;-74
2022/03/21 01:00:24;;;;;;;15.23;8.13;;;;;;;;;;5030666;28;20036;-75
2022/03/21 01:02:50;;;;;;;28.38;9.15;;;;;;;;;;5030637;28;20017;-76
2022/03/21 01:05:15;;;;;;;14.85;8.00;;;;;;;;;;5030384;28;20032;-75
2022/03/21 01:07:41;;;;;;;16.80;9.13;;;;;;;;;;5018373;28;20038;-75
2022/03/21 01:10:07;;;;;;;18.25;8.05;;;;;;;;;;5009494;28;20431;-75
2022/03/21 01:12:32;;;;;;;18.50;8.80;;;;;;;;;;5010727;28;20475;-73
2022/03/21 01:14:58;;;;;;;15.88;8.02;;;;;;;;;;5010920;28;20026;-75
2022/03/21 01:17:23;;;;;;;15.13;8.35;;;;;;;;;;5010741;28;20055;-76
2022/03/21 01:19:49;;;;;;;17.35;8.95;;;;;;;;;;5010612;28;20018;-75
2022/03/21 01:22:14;;;;;;;16.90;8.02;;;;;;;;;;5010686;28;20464;-74
2022/03/21 01:24:39;;;;;;;19.02;8.57;;;;;;;;;;5009296;28;20014;-75
2022/03/21 01:27:05;;;;;;;18.60;8.40;;;;;;;;;;5010733;28;20026;-75
2022/03/21 01:29:30;;;;;;;18.33;9.35;;;;;;;;;;5010712;28;20026;-76
2022/03/21 01:31:56;;;;;;;16.58;9.15;;;;;;;;;;5011779;28;20022;-74
2022/03/21 01:34:21;;;;;;;21.65;9.15;;;;;;;;;;5012947;28;20104;-74
2022/03/21 01:36:47;;;;;;;18.17;9.23;;;;;;;;;;5010614;28;20022;-76
2022/03/21 01:39:12;;;;;;;21.27;9.85;;;;;;;;;;5011245;28;20018;-76
2022/03/21 01:41:37;;;;;;;22.13;9.75;;;;;;;;;;5012311;28;20030;-76
2022/03/21 01:44:04;;;;;;;19.90;9.82;;;;;;;;;;5012368;28;20379;-75
2022/03/21 01:46:30;;;;;;;36.70;16.33;;;;;;;;;;5013954;28;20029;-76
2022/03/21 01:48:56;;;;;;;23.13;10.55;;;;;;;;;;5012753;28;20462;-75
2022/03/21 01:51:22;;;;;;;25.67;9.23;;;;;;;;;;5012643;28;20157;-81
2022/03/21 01:56:31;;;;;;;18.67;9.60;;;;;;;;;;5014008;28;20045;-75
2022/03/21 01:58:57;;;;;;;15.50;7.95;;;;;;;;;;5014060;28;20026;-75
2022/03/21 02:01:22;;;;;;;19.42;10.10;;;;;;;;;;5012535;28;20517;-75
2022/03/21 02:03:47;;;;;;;17.85;9.50;;;;;;;;;;5012215;28;20026;-75
2022/03/21 02:06:13;;;;;;;19.75;9.38;;;;;;;;;;5013493;28;20442;-74
2022/03/21 02:08:38;;;;;;;23.55;9.35;;;;;;;;;;5013529;28;20041;-74
2022/03/21 02:11:04;;;;;;;24.40;9.38;;;;;;;;;;5012061;28;20372;-75
2022/03/21 02:13:29;;;;;;;24.67;9.60;;;;;;;;;;5013275;28;20042;-75
2022/03/21 02:15:55;;;;;;;18.58;9.13;;;;;;;;;;5013428;28;20018;-75
2022/03/21 02:18:21;;;;;;;17.05;9.10;;;;;;;;;;5013537;28;20026;-75
2022/03/21 02:20:47;;;;;;;22.20;9.57;;;;;;;;;;5013363;28;20068;-76
2022/03/21 02:23:16;;;;;;;18.85;8.98;;;;;;;;;;5011635;28;20024;-77
2022/03/21 02:25:42;;;;;;;22.20;10.20;;;;;;;;;;5013700;28;20109;-74
2022/03/21 02:28:08;;;;;;;20.77;8.73;;;;;;;;;;5018329;28;20072;-75
2022/03/21 02:30:36;;;;;;;18.27;8.55;;;;;;;;;;5013214;28;20024;-75
2022/03/21 02:33:02;;;;;;;22.70;9.40;;;;;;;;;;5013187;28;20033;-75
2022/03/21 02:35:28;;;;;;;20.02;9.07;;;;;;;;;;5013493;28;21221;-74
2022/03/21 02:37:54;;;;;;;21.23;9.93;;;;;;;;;;5014108;28;20049;-75
2022/03/21 02:40:19;;;;;;;18.13;9.95;;;;;;;;;;5017104;28;20132;-77
2022/03/21 02:42:45;;;;;;;21.92;10.38;;;;;;;;;;4997812;28;20283;-76
2022/03/21 02:45:10;;;;;;;27.63;8.57;;;;;;;;;;5012966;28;20025;-76
2022/03/21 02:47:35;;;;;;;20.02;10.57;;;;;;;;;;5012911;28;20057;-75
2022/03/21 02:50:01;;;;;;;21.75;10.43;;;;;;;;;;5012878;28;20022;-75
2022/03/21 02:52:28;;;;;;;21.48;9.52;;;;;;;;;;5011344;28;20021;-75
2022/03/21 02:54:53;;;;;;;20.45;9.02;;;;;;;;;;5012460;28;20107;-74
2022/03/21 02:57:18;;;;;;;17.70;9.02;;;;;;;;;;5012604;28;20057;-76
2022/03/21 02:59:43;;;;;;;17.67;9.00;;;;;;;;;;5012748;28;20104;-74
2022/03/21 03:02:09;;;;;;;27.42;9.80;;;;;;;;;;5012588;28;20025;-74
2022/03/21 03:04:35;;;;;;;17.13;8.93;;;;;;;;;;5012462;28;20030;-75
2022/03/21 03:07:00;;;;;;;17.23;8.27;;;;;;;;;;5010960;28;20021;-75
2022/03/21 03:09:27;;;;;;;18.40;7.60;;;;;;;;;;5012202;28;20065;-74
2022/03/21 03:11:52;;;;;;;18.88;9.90;;;;;;;;;;5010943;28;20041;-75
2022/03/21 03:14:18;;;;;;;21.30;7.68;;;;;;;;;;5010694;28;20118;-75
2022/03/21 03:16:43;;;;;;;16.83;8.10;;;;;;;;;;5012219;28;20046;-75
2022/03/21 03:19:08;;;;;;;17.77;8.43;;;;;;;;;;5012013;28;20021;-77
2022/03/21 03:21:35;;;;;;;22.27;9.43;;;;;;;;;;5012438;28;20010;-75
2022/03/21 03:24:01;;;;;;;16.50;8.70;;;;;;;;;;5015777;28;20034;-77
2022/03/21 03:26:26;;;;;;;18.70;8.90;;;;;;;;;;5012286;28;20018;-75
2022/03/21 03:28:51;;;;;;;17.77;8.40;;;;;;;;;;5012269;28;20495;-76
2022/03/21 03:31:17;;;;;;;17.20;8.70;;;;;;;;;;5012021;28;20030;-77
2022/03/21 03:33:45;;;;;;;19.45;8.13;;;;;;;;;;5011868;28;20022;-78
2022/03/21 03:36:10;;;;;;;19.75;8.48;;;;;;;;;;5011758;28;20076;-79
2022/03/21 03:38:36;;;;;;;19.70;8.35;;;;;;;;;;5010754;28;20030;-78
2022/03/21 03:41:01;;;;;;;22.13;8.85;;;;;;;;;;5011656;28;20018;-78
2022/03/21 03:43:27;;;;;;;20.40;8.02;;;;;;;;;;5011819;28;20475;-77
2022/03/21 03:45:52;;;;;;;19.08;9.65;;;;;;;;;;5010330;28;20391;-76
2022/03/21 03:48:21;;;;;;;20.20;8.55;;;;;;;;;;5011562;28;20029;-77
2022/03/21 03:50:47;;;;;;;17.48;9.35;;;;;;;;;;5011441;28;20468;-75
2022/03/21 03:53:12;;;;;;;18.23;8.77;;;;;;;;;;5011444;28;20037;-76
2022/03/21 03:55:37;;;;;;;16.50;8.50;;;;;;;;;;5011365;28;20096;-78
2022/03/21 03:58:02;;;;;;;18.58;8.32;;;;;;;;;;5012119;28;20029;-77
2022/03/21 04:00:28;;;;;;;16.60;8.32;;;;;;;;;;5011544;28;20490;-76
2022/03/21 04:05:37;;;;;;;19.98;8.30;;;;;;;;;;5011501;28;20559;-75
2022/03/21 04:08:02;;;;;;;19.30;8.27;;;;;;;;;;5010239;28;20144;-77
2022/03/21 04:10:27;;;;;;;17.83;8.85;;;;;;;;;;5010151;28;20022;-76
2022/03/21 04:12:53;;;;;;;19.55;9.35;;;;;;;;;;5009986;28;20385;-76
2022/03/21 04:15:19;;;;;;;20.90;8.68;;;;;;;;;;5011568;28;20037;-76
2022/03/21 04:17:44;;;;;;;17.88;8.70;;;;;;;;;;5011911;28;20029;-78
2022/03/21 04:20:10;;;;;;;22.25;9.15;;;;;;;;;;5012478;28;20026;-76
2022/03/21 04:22:36;;;;;;;21.75;8.85;;;;;;;;;;5011389;28;20021;-76
2022/03/21 04:25:03;;;;;;;21.35;9.32;;;;;;;;;;5011218;28;20120;-76
2022/03/21 04:27:28;;;;;;;17.85;8.75;;;;;;;;;;5011408;28;20051;-75
2022/03/21 04:29:53;;;;;;;18.88;8.80;;;;;;;;;;5011200;28;20032;-77
2022/03/21 04:32:18;;;;;;;26.73;10.18;;;;;;;;;;5010995;28;20017;-78
2022/03/21 04:34:44;;;;;;;25.25;9.60;;;;;;;;;;5009598;28;20030;-76
2022/03/21 04:37:09;;;;;;;22.77;8.90;;;;;;;;;;5010011;28;21474;-75
2022/03/21 04:39:34;;;;;;;17.30;8.68;;;;;;;;;;5009704;28;20026;-77
2022/03/21 04:42:00;;;;;;;20.30;9.43;;;;;;;;;;5010798;28;20022;-76
2022/03/21 04:44:25;;;;;;;22.45;9.82;;;;;;;;;;5010728;28;20080;-75
2022/03/21 04:46:50;;;;;;;23.30;9.98;;;;;;;;;;5011068;28;20442;-76
2022/03/21 04:49:16;;;;;;;21.27;9.77;;;;;;;;;;5010866;28;20041;-76
2022/03/21 04:51:41;;;;;;;24.15;10.02;;;;;;;;;;5010968;28;20018;-77
2022/03/21 04:54:07;;;;;;;22.50;10.30;;;;;;;;;;5011009;28;20025;-77
2022/03/21 04:56:32;;;;;;;23.85;10.38;;;;;;;;;;5010596;28;20061;-75
2022/03/21 04:58:57;;;;;;;28.05;10.80;;;;;;;;;;5011041;28;20030;-76
2022/03/21 05:01:23;;;;;;;23.23;9.50;;;;;;;;;;5010719;28;20490;-78
2022/03/21 05:03:50;;;;;;;36.42;14.90;;;;;;;;;;5009499;28;20653;-77
2022/03/21 05:06:16;;;;;;;17.58;10.30;;;;;;;;;;5009296;28;20025;-77
2022/03/21 05:08:42;;;;;;;19.33;9.60;;;;;;;;;;5010675;28;20077;-76
2022/03/21 05:11:07;;;;;;;24.20;9.15;;;;;;;;;;5009632;28;20053;-78
2022/03/21 05:13:32;;;;;;;24.58;9.95;;;;;;;;;;5011739;28;20053;-77
2022/03/21 05:15:57;;;;;;;22.13;11.02;;;;;;;;;;5010640;28;20360;-77
2022/03/21 05:18:23;;;;;;;22.88;10.32;;;;;;;;;;5010795;28;20513;-76
2022/03/21 05:20:48;;;;;;;24.88;9.52;;;;;;;;;;5013257;28;20049;-77
2022/03/21 05:31:25;;;;;;;25.90;11.50;;;;;;;;;;5014295;28;20537;-75
2022/03/21 05:36:34;;;;;;;21.33;10.48;;;;;;;;;;5014299;28;20028;-75
2022/03/21 05:39:00;;;;;;;28.10;10.80;;;;;;;;;;5014173;28;20021;-76
2022/03/21 05:41:25;;;;;;;20.65;10.77;;;;;;;;;;5012749;28;20475;-76
2022/03/21 05:43:51;;;;;;;24.42;10.50;;;;;;;;;;5011794;28;20030;-77
2022/03/21 05:46:16;;;;;;;40.55;11.02;;;;;;;;;;5002154;28;20561;-76
2022/03/21 05:48:59;;;;;;;25.58;10.50;;;;;;;;;;5013702;28;20037;-74
2022/03/21 05:51:28;;;;;;;27.08;10.55;;;;;;;;;;4999584;28;20026;-75
2022/03/21 05:53:53;;;;;;;19.05;10.25;;;;;;;;;;5000208;28;20034;-74
2022/03/21 05:56:19;;;;;;;25.85;10.20;;;;;;;;;;5023733;28;20022;-74
2022/03/21 05:58:44;;;;;;;26.13;11.57;;;;;;;;;;5025154;28;20025;-76
2022/03/21 06:01:15;;;;;;;29.60;11.90;;;;;;;;;;5012162;28;20080;-74
2022/03/21 06:03:41;;;;;;;25.13;10.52;;;;;;;;;;5019369;28;20068;-73
2022/03/21 06:06:06;;;;;;;22.83;9.45;;;;;;;;;;5022094;28;20053;-75
2022/03/21 06:08:31;;;;;;;23.75;9.43;;;;;;;;;;5021552;28;20033;-73
2022/03/21 06:11:08;;;;;;;23.90;10.23;;;;;;;;;;5023106;28;20018;-73
2022/03/21 06:13:34;;;;;;;18.60;9.68;;;;;;;;;;5022318;28;20391;-71
2022/03/21 06:16:03;;;;;;;23.30;10.35;;;;;;;;;;5015663;28;20385;-71
2022/03/21 06:18:29;;;;;;;26.65;12.93;;;;;;;;;;5013690;28;20075;-72
2022/03/21 06:20:54;;;;;;;23.50;10.20;;;;;;;;;;5011426;28;20390;-72
2022/03/21 06:23:19;;;;;;;19.40;10.10;;;;;;;;;;5015252;28;20033;-72
2022/03/21 06:25:44;;;;;;;20.35;9.50;;;;;;;;;;5021218;28;20025;-73
2022/03/21 06:28:10;;;;;;;22.40;9.98;;;;;;;;;;5019510;28;20042;-74
2022/03/21 06:30:35;;;;;;;28.10;10.02;;;;;;;;;;5021345;28;20155;-73
2022/03/21 06:33:00;;;;;;;23.35;9.40;;;;;;;;;;5012605;28;20713;-73
2022/03/21 06:35:26;;;;;;;23.63;11.27;;;;;;;;;;5013579;28;20017;-79
2022/03/21 06:37:51;;;;;;;21.10;10.63;;;;;;;;;;5016682;28;20498;-75
2022/03/21 06:40:16;;;;;;;24.33;8.88;;;;;;;;;;5011339;28;20021;-77
2022/03/21 06:42:42;;;;;;;29.20;11.48;;;;;;;;;;5011771;28;20022;-76
2022/03/21 06:45:07;;;;;;;21.23;8.65;;;;;;;;;;5011083;28;20076;-75
2022/03/21 06:47:32;;;;;;;21.75;9.95;;;;;;;;;;5012596;28;20034;-76
2022/03/21 06:49:58;;;;;;;23.20;9.23;;;;;;;;;;5011366;28;20387;-77
2022/03/21 06:52:23;;;;;;;18.25;9.70;;;;;;;;;;5011410;28;20028;-74
2022/03/21 06:54:49;;;;;;;41.50;11.73;;;;;;;;;;5012504;28;20125;-76
2022/03/21 06:57:15;;;;;;;17.73;8.75;;;;;;;;;;5012759;28;20022;-76
2022/03/21 06:59:41;;;;;;;22.45;11.32;;;;;;;;;;5011501;28;20032;-75
2022/03/21 07:02:06;;;;;;;23.10;11.20;;;;;;;;;;5013292;28;20055;-76
2022/03/21 07:04:32;;;;;;;29.60;12.65;;;;;;;;;;5015753;28;20022;-75
2022/03/21 07:06:57;;;;;;;25.73;9.77;;;;;;;;;;5012885;28;20041;-76
2022/03/21 07:09:24;;;;;;;29.65;11.02;;;;;;;;;;5012187;28;20037;-77
2022/03/21 07:11:49;;;;;;;29.10;10.98;;;;;;;;;;5010741;28;20017;-77
2022/03/21 07:14:20;;;;;;;28.88;11.43;;;;;;;;;;5010766;28;20052;-76
2022/03/21 07:16:46;;;;;;;23.88;9.65;;;;;;;;;;5012564;28;20029;-78
2022/03/21 07:19:11;;;;;;;17.55;9.77;;;;;;;;;;5010472;28;20014;-77
2022/03/21 07:21:37;;;;;;;22.40;10.55;;;;;;;;;;5011933;28;20107;-80
2022/03/21 07:24:02;;;;;;;26.23;10.57;;;;;;;;;;5011651;28;20452;-77
2022/03/21 07:26:27;;;;;;;27.05;13.70;;;;;;;;;;5010553;28;20022;-76
2022/03/21 07:28:53;;;;;;;29.05;11.38;;;;;;;;;;5002286;28;20049;-77
2022/03/21 07:31:18;;;;;;;21.75;10.00;;;;;;;;;;4999719;28;20025;-76
2022/03/21 07:33:43;;;;;;;23.92;10.50;;;;;;;;;;5019006;28;20060;-76
2022/03/21 07:36:09;;;;;;;24.92;10.95;;;;;;;;;;5018011;28;20018;-76
2022/03/21 07:38:35;;;;;;;20.85;10.63;;;;;;;;;;5017161;28;20108;-75
2022/03/21 07:41:01;;;;;;;19.90;9.43;;;;;;;;;;5020554;28;20033;-76
2022/03/21 07:43:26;;;;;;;26.58;9.75;;;;;;;;;;5009082;28;20545;-77
2022/03/21 07:48:35;;;;;;;23.20;10.05;;;;;;;;;;5016584;28;20052;-74
2022/03/21 07:51:01;;;;;;;20.52;9.73;;;;;;;;;;5019760;28;20124;-76
2022/03/21 07:53:27;;;;;;;24.23;9.88;;;;;;;;;;5022782;28;20021;-76
2022/03/21 07:55:53;;;;;;;17.92;9.85;;;;;;;;;;5020363;28;20018;-76
2022/03/21 07:58:18;;;;;;;22.40;10.00;;;;;;;;;;5020474;28;20095;-77
2022/03/21 08:00:44;;;;;;;20.35;9.88;;;;;;;;;;5015918;28;20017;-76
2022/03/21 08:03:11;;;;;;;17.58;8.35;;;;;;;;;;5018884;28;20124;-76
2022/03/21 08:05:36;;;;;;;16.25;8.98;;;;;;;;;;5019982;28;20080;-76
2022/03/21 08:08:01;;;;;;;18.25;9.43;;;;;;;;;;5021497;28;20025;-77
2022/03/21 08:10:29;;;;;;;17.87;10.23;;;;;;;;;;5021284;28;20009;-77
2022/03/21 08:12:55;;;;;;;16.42;9.73;;;;;;;;;;5012505;28;20279;-75
2022/03/21 08:15:21;;;;;;;15.68;8.35;;;;;;;;;;5019527;28;20035;-76
2022/03/21 08:17:50;;;;;;;21.67;9.07;;;;;;;;;;5008976;28;20022;-75
2022/03/21 08:20:17;;;;;;;16.38;9.32;;;;;;;;;;5017627;28;20017;-74
2022/03/21 08:22:43;;;;;;;18.85;9.15;;;;;;;;;;5011774;28;20107;-74
2022/03/21 08:25:08;;;;;;;19.35;10.98;;;;;;;;;;5016269;28;20114;-76
2022/03/21 08:27:35;;;;;;;14.90;8.93;;;;;;;;;;5009987;28;20557;-74
2022/03/21 08:30:00;;;;;;;17.63;9.32;;;;;;;;;;5016453;28;20061;-74
2022/03/21 08:32:25;;;;;;;15.70;9.80;;;;;;;;;;5017127;28;20033;-74
2022/03/21 08:34:51;;;;;;;18.50;9.27;;;;;;;;;;5015994;28;20018;-74
2022/03/21 08:37:18;;;;;;;16.88;9.50;;;;;;;;;;5021362;28;20283;-75
2022/03/21 08:39:43;;;;;;;17.48;10.55;;;;;;;;;;5010695;28;20010;-74
2022/03/21 08:42:08;;;;;;;17.73;9.68;;;;;;;;;;5013028;28;20029;-74
2022/03/21 08:44:34;;;;;;;18.95;9.35;;;;;;;;;;5020618;28;20080;-74
2022/03/21 08:46:59;;;;;;;17.67;10.10;;;;;;;;;;5016233;28;20025;-75
2022/03/21 08:49:26;;;;;;;20.98;10.25;;;;;;;;;;5021671;28;20966;-74
2022/03/21 08:51:51;;;;;;;16.58;9.30;;;;;;;;;;5018095;28;20017;-74
2022/03/21 08:54:19;;;;;;;19.20;10.40;;;;;;;;;;5023796;28;20017;-73
2022/03/21 08:56:44;;;;;;;18.63;10.45;;;;;;;;;;5026987;28;20597;-74
2022/03/21 08:59:10;;;;;;;21.67;9.95;;;;;;;;;;5021880;28;20032;-75
2022/03/21 09:01:35;;;;;;;18.83;10.20;;;;;;;;;;5024942;28;20060;-75
2022/03/21 09:04:01;;;;;;;17.77;9.60;;;;;;;;;;5022050;28;20116;-75
2022/03/21 09:06:27;;;;;;;14.10;8.68;;;;;;;;;;5018570;28;20014;-74
2022/03/21 09:08:52;;;;;;;16.70;9.43;;;;;;;;;;5015618;28;20113;-74
2022/03/21 09:11:18;;;;;;;17.97;9.20;;;;;;;;;;5024445;28;20025;-75
2022/03/21 09:13:47;;;;;;;14.73;9.93;;;;;;;;;;5016693;28;20306;-75
2022/03/21 09:16:13;;;;;;;19.70;10.63;;;;;;;;;;5017067;28;20378;-73
2022/03/21 09:18:39;;;;;;;14.20;8.65;;;;;;;;;;5018912;28;20018;-76
2022/03/21 09:21:05;;;;;;;13.07;9.00;;;;;;;;;;5015184;28;20029;-75
2022/03/21 09:23:30;;;;;;;13.77;8.80;;;;;;;;;;5012725;28;20049;-75
2022/03/21 09:25:55;;;;;;;15.37;8.77;;;;;;;;;;5013926;28;20022;-74
2022/03/21 09:28:21;;;;;;;15.77;8.57;;;;;;;;;;5013539;28;20299;-74
2022/03/21 09:30:47;;;;;;;12.32;7.97;;;;;;;;;;5013267;28;20025;-75
2022/03/21 09:33:12;;;;;;;13.60;8.70;;;;;;;;;;5014274;28;20018;-75
2022/03/21 09:35:37;;;;;;;18.90;10.63;;;;;;;;;;5014253;28;20387;-74
2022/03/21 09:38:03;;;;;;;17.47;8.40;;;;;;;;;;5014219;28;20294;-74
2022/03/21 09:40:28;;;;;;;20.73;10.43;;;;;;;;;;5014130;28;20261;-75
2022/03/21 09:42:54;;;;;;;17.58;8.68;;;;;;;;;;5014181;28;20379;-75
2022/03/21 09:45:19;;;;;;;13.23;8.00;;;;;;;;;;5014063;28;20014;-75
2022/03/21 09:50:35;;;;;;;14.80;8.10;;;;;;;;;;5014818;28;20801;-75
2022/03/21 09:53:01;;;;;;;15.52;9.15;;;;;;;;;;5016815;28;20018;-75
2022/03/21 09:55:26;;;;;;;14.00;8.90;;;;;;;;;;5012394;28;20582;-75
2022/03/21 09:57:51;;;;;;;12.98;8.52;;;;;;;;;;5013841;28;20422;-75
2022/03/21 10:00:17;;;;;;;12.57;8.17;;;;;;;;;;5014060;28;20010;-75
2022/03/21 10:02:42;;;;;;;12.90;8.13;;;;;;;;;;5013698;28;20025;-74
2022/03/21 10:05:28;;;;;;;15.25;9.20;;;;;;;;;;5013636;28;20379;-74
2022/03/21 10:07:53;;;;;;;13.15;8.68;;;;;;;;;;5013398;28;20044;-75
2022/03/21 10:10:18;;;;;;;14.30;8.70;;;;;;;;;;5013546;28;20022;-74
2022/03/21 10:12:43;;;;;;;19.43;8.40;;;;;;;;;;5013366;28;20358;-74
2022/03/21 10:15:09;;;;;;;12.40;7.97;;;;;;;;;;5013615;28;20263;-74
2022/03/21 10:17:35;;;;;;;12.90;8.15;;;;;;;;;;5013763;28;20442;-74
2022/03/21 10:20:01;;;;;;;13.32;8.88;;;;;;;;;;5013566;28;20498;-75
2022/03/21 10:22:32;;;;;;;10.77;7.50;;;;;;;;;;5013159;28;20025;-73
2022/03/21 10:25:01;;;;;;;14.85;7.70;;;;;;;;;;5013299;28;20022;-74
2022/03/21 10:27:33;;;;;;;14.05;8.23;;;;;;;;;;5013312;28;20026;-74
2022/03/21 10:30:00;;;;;;;13.68;7.82;;;;;;;;;;4998449;28;20045;-74
2022/03/21 10:32:44;;;;;;;13.20;7.90;;;;;;;;;;4993786;28;20076;-74
2022/03/21 10:35:30;;;;;;;14.52;8.05;;;;;;;;;;4993416;28;20438;-73
2022/03/21 10:37:58;;;;;;;12.32;7.72;;;;;;;;;;4993428;28;20487;-74
2022/03/21 10:40:30;;;;;;;12.02;7.13;;;;;;;;;;4993780;28;20407;-74
2022/03/21 10:43:00;;;;;;;16.27;8.25;;;;;;;;;;4993632;28;20415;-74
2022/03/21 10:45:34;;;;;;;15.55;7.38;;;;;;;;;;4993416;28;20030;-74
2022/03/21 10:47:59;;;;;;;12.50;7.43;;;;;;;;;;4993215;28;20031;-74
2022/03/21 10:50:29;;;;;;;15.77;8.82;;;;;;;;;;4993437;28;20526;-74
2022/03/21 10:53:08;;;;;;;13.25;7.80;;;;;;;;;;4992427;28;20026;-73
2022/03/21 10:55:33;;;;;;;16.70;7.72;;;;;;;;;;4993511;28;20398;-74
2022/03/21 10:57:58;;;;;;;11.95;7.80;;;;;;;;;;4993768;28;20014;-74
2022/03/21 11:00:26;;;;;;;13.50;7.72;;;;;;;;;;4994371;28;20022;-73
2022/03/21 11:03:05;;;;;;;10.88;7.97;;;;;;;;;;4994291;28;20079;-78
2022/03/21 11:05:33;;;;;;;12.02;7.75;;;;;;;;;;4994305;28;20427;-75
2022/03/21 11:07:58;;;;;;;13.20;7.80;;;;;;;;;;4994882;28;20034;-73
2022/03/21 11:10:24;;;;;;;11.48;7.75;;;;;;;;;;4993741;28;20022;-73
2022/03/21 11:12:50;;;;;;;11.95;7.47;;;;;;;;;;4994773;28;20145;-76
2022/03/21 11:15:15;;;;;;;11.75;7.68;;;;;;;;;;4993960;28;20105;-77
2022/03/21 11:17:41;;;;;;;13.13;7.07;;;;;;;;;;5008339;28;20034;-74
2022/03/21 11:20:07;;;;;;;14.85;7.90;;;;;;;;;;5008250;28;20511;-76
2022/03/21 11:22:36;;;;;;;13.40;7.68;;;;;;;;;;4993413;28;20073;-77
2022/03/21 11:25:05;;;;;;;17.27;7.55;;;;;;;;;;4993764;28;20046;-75
2022/03/21 11:27:31;;;;;;;12.80;7.10;;;;;;;;;;4994626;28;20045;-83
2022/03/21 11:30:12;;;;;;;13.48;7.80;;;;;;;;;;4996680;28;20491;-88
2022/03/21 11:32:43;;;;;;;17.15;7.75;;;;;;;;;;5008474;28;20101;-76
2022/03/21 11:35:17;;;;;;;14.45;8.27;;;;;;;;;;4992364;28;20029;-76
2022/03/21 11:37:42;;;;;;;16.58;7.35;;;;;;;;;;5006883;28;20030;-76
2022/03/21 11:40:31;;;;;;;14.82;7.35;;;;;;;;;;4990733;28;20380;-76
2022/03/21 11:43:15;;;;;;;11.43;7.05;;;;;;;;;;4991624;28;20507;-75
2022/03/21 11:45:40;;;;;;;13.63;7.20;;;;;;;;;;4992032;28;20030;-74
2022/03/21 11:48:17;;;;;;;17.17;7.20;;;;;;;;;;4990684;28;20389;-74
2022/03/21 11:50:46;;;;;;;12.80;7.85;;;;;;;;;;4992042;28;20092;-73
2022/03/21 11:53:13;;;;;;;19.92;8.73;;;;;;;;;;4991730;28;20022;-81
2022/03/21 11:55:40;;;;;;;10.77;7.05;;;;;;;;;;5006863;28;20032;-74
2022/03/21 11:58:24;;;;;;;14.15;7.35;;;;;;;;;;4990780;28;20026;-76
2022/03/21 12:01:05;;;;;;;11.68;7.63;;;;;;;;;;4992400;28;20523;-74
2022/03/21 12:03:30;;;;;;;14.98;8.30;;;;;;;;;;4991934;28;20049;-74
2022/03/21 12:05:55;;;;;;;14.48;8.32;;;;;;;;;;4991931;28;20487;-74
2022/03/21 12:08:34;;;;;;;16.08;7.75;;;;;;;;;;4991777;28;20038;-74
2022/03/21 12:10:59;;;;;;;16.40;7.82;;;;;;;;;;4990592;28;20038;-74
2022/03/21 12:13:24;;;;;;;16.02;8.10;;;;;;;;;;4992401;28;20049;-73
2022/03/21 12:15:51;;;;;;;14.05;7.90;;;;;;;;;;4991988;28;20030;-73
2022/03/21 12:18:16;;;;;;;18.48;7.95;;;;;;;;;;4993335;28;20045;-75
2022/03/21 12:20:46;;;;;;;12.90;7.53;;;;;;;;;;4992442;28;20463;-73
2022/03/21 12:23:15;;;;;;;12.07;7.22;;;;;;;;;;4991753;28;20753;-74
2022/03/21 12:25:51;;;;;;;10.95;7.03;;;;;;;;;;4989901;28;20476;-73
2022/03/21 12:28:19;;;;;;;16.65;7.03;;;;;;;;;;4990877;28;20124;-74
2022/03/21 12:30:48;;;;;;;12.80;6.88;;;;;;;;;;4990441;28;20112;-74
2022/03/21 12:33:13;;;;;;;11.20;5.85;;;;;;;;;;5009502;28;20018;-74
2022/03/21 12:35:45;;;;;;;11.20;6.45;;;;;;;;;;5009264;28;20014;-74
2022/03/21 12:38:22;;;;;;;11.15;6.45;;;;;;;;;;5010389;28;20399;-74
2022/03/21 12:40:47;;;;;;;16.20;6.63;;;;;;;;;;5010773;28;20105;-74
2022/03/21 12:43:13;;;;;;;12.05;6.75;;;;;;;;;;5010694;28;20121;-75
2022/03/21 12:45:39;;;;;;;10.77;6.53;;;;;;;;;;5010692;28;20030;-75
2022/03/21 12:48:05;;;;;;;12.37;6.03;;;;;;;;;;5010235;28;20037;-74
2022/03/21 12:50:31;;;;;;;12.18;7.13;;;;;;;;;;4992567;28;20767;-74
2022/03/21 12:52:58;;;;;;;11.18;6.45;;;;;;;;;;5010848;28;20022;-85
2022/03/21 12:55:23;;;;;;;10.50;6.50;;;;;;;;;;5013781;28;20076;-75
2022/03/21 12:57:53;;;;;;;12.02;6.03;;;;;;;;;;5019195;28;20009;-75
2022/03/21 13:00:19;;;;;;;16.10;7.18;;;;;;;;;;5022512;28;20177;-80
2022/03/21 13:02:44;;;;;;;12.77;6.55;;;;;;;;;;5015340;28;20032;-74
2022/03/21 13:10:39;;;;;;;13.82;7.20;;;;;;;;;;5017667;28;20044;-76
2022/03/21 13:13:05;;;;;;;12.30;6.60;;;;;;;;;;5016472;28;20057;-76
2022/03/21 13:15:31;;;;;;;13.30;6.43;;;;;;;;;;5016788;28;20018;-75
2022/03/21 13:17:57;;;;;;;12.30;6.53;;;;;;;;;;5001464;28;20104;-77
2022/03/21 13:20:26;;;;;;;14.43;6.43;;;;;;;;;;5014334;28;20109;-77
2022/03/21 13:22:52;;;;;;;11.30;6.00;;;;;;;;;;5015802;28;20025;-75
2022/03/21 13:25:21;;;;;;;15.57;6.85;;;;;;;;;;5020282;28;20028;-74
2022/03/21 13:27:47;;;;;;;13.80;6.45;;;;;;;;;;5018527;28;20033;-76
2022/03/21 13:30:12;;;;;;;11.85;6.50;;;;;;;;;;5011864;28;20109;-76
2022/03/21 13:32:41;;;;;;;12.52;6.53;;;;;;;;;;5008633;28;20026;-77
2022/03/21 13:35:06;;;;;;;12.77;6.28;;;;;;;;;;5016391;28;20429;-77
2022/03/21 13:37:32;;;;;;;11.55;6.43;;;;;;;;;;5020280;28;20026;-74
2022/03/21 13:40:03;;;;;;;12.02;5.60;;;;;;;;;;5021431;28;20375;-76
2022/03/21 13:42:31;;;;;;;10.13;5.82;;;;;;;;;;5026312;28;20033;-76
2022/03/21 13:45:01;;;;;;;10.30;6.45;;;;;;;;;;5024436;28;20466;-76
2022/03/21 13:47:27;;;;;;;10.98;5.97;;;;;;;;;;5024313;28;20014;-76
2022/03/21 13:50:02;;;;;;;9.30;6.00;;;;;;;;;;5020687;28;20421;-75
2022/03/21 13:52:41;;;;;;;10.30;6.05;;;;;;;;;;5021279;28;20024;-76
2022/03/21 13:55:07;;;;;;;12.68;6.40;;;;;;;;;;5019733;28;20022;-75
2022/03/21 13:57:41;;;;;;;10.88;5.93;;;;;;;;;;5024015;28;20083;-76
2022/03/21 14:00:13;;;;;;;10.90;5.70;;;;;;;;;;5023103;28;20029;-75
2022/03/21 14:02:47;;;;;;;11.15;7.30;;;;;;;;;;5019429;28;20038;-76
2022/03/21 14:05:20;;;;;;;10.85;6.00;;;;;;;;;;5024795;28;20058;-75
2022/03/21 14:07:49;;;;;;;11.82;5.85;;;;;;;;;;5023096;28;20123;-75
2022/03/21 14:10:15;;;;;;;13.70;7.20;;;;;;;;;;5017441;28;20475;-75
2022/03/21 14:12:42;;;;;;;12.57;7.22;;;;;;;;;;5023048;28;20073;-75
2022/03/21 14:15:07;;;;;;;11.32;6.10;;;;;;;;;;5019200;28;20026;-76
2022/03/21 14:17:32;;;;;;;15.55;5.78;;;;;;;;;;5021835;28;20029;-76
2022/03/21 14:20:00;;;;;;;9.33;5.77;;;;;;;;;;5012144;28;20045;-75
2022/03/21 14:22:25;;;;;;;10.82;5.50;;;;;;;;;;5020416;28;20267;-74
2022/03/21 14:24:51;;;;;;;12.80;5.77;;;;;;;;;;5014827;28;20068;-76
2022/03/21 14:27:16;;;;;;;11.97;5.90;;;;;;;;;;5021699;28;20255;-75
2022/03/21 14:29:41;;;;;;;9.97;5.83;;;;;;;;;;5021415;28;20321;-75
2022/03/21 14:32:08;;;;;;;10.60;5.70;;;;;;;;;;5015409;28;20259;-75
2022/03/21 14:34:33;;;;;;;17.60;9.77;;;;;;;;;;5022230;28;20036;-78
2022/03/21 14:36:59;;;;;;;13.25;6.60;;;;;;;;;;5020676;28;20014;-75
2022/03/21 14:39:25;;;;;;;10.07;6.10;;;;;;;;;;5011528;28;20540;-76
2022/03/21 14:41:50;;;;;;;14.25;7.55;;;;;;;;;;5016931;28;20121;-78
2022/03/21 14:44:16;;;;;;;13.02;8.05;;;;;;;;;;5019498;28;20088;-75
2022/03/21 14:46:41;;;;;;;12.30;5.60;;;;;;;;;;5019067;28;20030;-76
2022/03/21 14:49:06;;;;;;;10.50;5.80;;;;;;;;;;5020755;28;20017;-74
2022/03/21 14:51:34;;;;;;;12.25;5.47;;;;;;;;;;5020653;28;21534;-76
2022/03/21 14:53:59;;;;;;;10.23;6.00;;;;;;;;;;5017600;28;20018;-77